sensor_id;sensor_type;location;lat;lon;timestamp;pressure;altitude;pressure_sealevel;temperature;humidity
48614;BME280;34408;51.426;5.444;2023-04-01T00:00:19;99114.53;;;12.22;69.05
48614;BME280;34408;51.426;5.444;2023-04-01T00:02:47;99106.19;;;12.19;68.53
48614;BME280;34408;51.426;5.444;2023-04-01T00:05:15;99106.75;;;12.16;68.69
48614;BME280;34408;51.426;5.444;2023-04-01T00:07:43;99119.41;;;12.15;68.69
48614;BME280;34408;51.426;5.444;2023-04-01T00:10:12;99110.53;;;12.15;68.90
48614;BME280;34408;51.426;5.444;2023-04-01T00:12:40;99115.91;;;12.15;68.84
48614;BME280;34408;51.426;5.444;2023-04-01T00:15:10;99121.59;;;12.13;68.79
48614;BME280;34408;51.426;5.444;2023-04-01T00:17:39;99121.06;;;12.11;69.07
48614;BME280;34408;51.426;5.444;2023-04-01T00:20:08;99121.88;;;12.12;69.21
48614;BME280;34408;51.426;5.444;2023-04-01T00:22:36;99116.50;;;12.12;69.21
48614;BME280;34408;51.426;5.444;2023-04-01T00:25:04;99119.47;;;12.10;69.12
48614;BME280;34408;51.426;5.444;2023-04-01T00:27:32;99122.44;;;12.09;69.10
48614;BME280;34408;51.426;5.444;2023-04-01T00:30:00;99122.44;;;12.09;69.20
48614;BME280;34408;51.426;5.444;2023-04-01T00:32:28;99122.44;;;12.09;69.13
48614;BME280;34408;51.426;5.444;2023-04-01T00:34:58;99129.69;;;12.08;68.91
48614;BME280;34408;51.426;5.444;2023-04-01T00:37:26;99126.19;;;12.08;68.78
48614;BME280;34408;51.426;5.444;2023-04-01T00:39:55;99125.38;;;12.07;69.03
48614;BME280;34408;51.426;5.444;2023-04-01T00:42:23;99127.28;;;12.07;69.08
48614;BME280;34408;51.426;5.444;2023-04-01T00:44:53;99132.66;;;12.01;69.03
48614;BME280;34408;51.426;5.444;2023-04-01T00:47:22;99137.78;;;12.03;69.37
48614;BME280;34408;51.426;5.444;2023-04-01T00:49:53;99138.31;;;12.10;69.57
48614;BME280;34408;51.426;5.444;2023-04-01T00:52:25;99136.44;;;12.05;69.28
48614;BME280;34408;51.426;5.444;2023-04-01T00:54:56;99145.88;;;12.03;69.44
48614;BME280;34408;51.426;5.444;2023-04-01T00:57:31;99154.47;;;12.00;69.45
48614;BME280;34408;51.426;5.444;2023-04-01T01:00:01;99155.56;;;11.99;69.73
48614;BME280;34408;51.426;5.444;2023-04-01T01:02:29;99153.16;;;11.97;69.81
48614;BME280;34408;51.426;5.444;2023-04-01T01:04:59;99157.72;;;11.97;69.49
48614;BME280;34408;51.426;5.444;2023-04-01T01:07:32;99156.09;;;11.96;69.23
48614;BME280;34408;51.426;5.444;2023-04-01T01:10:10;99158.81;;;11.96;69.51
48614;BME280;34408;51.426;5.444;2023-04-01T01:12:41;99158.81;;;11.96;69.88
48614;BME280;34408;51.426;5.444;2023-04-01T01:15:16;99161.50;;;11.96;69.68
48614;BME280;34408;51.426;5.444;2023-04-01T01:17:53;99163.38;;;11.95;69.49
48614;BME280;34408;51.426;5.444;2023-04-01T01:20:36;99170.91;;;11.93;69.74
48614;BME280;34408;51.426;5.444;2023-04-01T01:23:46;99173.06;;;11.91;69.55
48614;BME280;34408;51.426;5.444;2023-04-01T01:26:38;99159.88;;;11.90;69.89
48614;BME280;34408;51.426;5.444;2023-04-01T01:29:13;99161.78;;;11.89;69.51
48614;BME280;34408;51.426;5.444;2023-04-01T01:31:51;99165.28;;;11.90;69.51
48614;BME280;34408;51.426;5.444;2023-04-01T01:34:30;99158.53;;;11.87;69.72
48614;BME280;34408;51.426;5.444;2023-04-01T01:37:07;99165.81;;;11.87;69.96
48614;BME280;34408;51.426;5.444;2023-04-01T01:39:39;99165.81;;;11.87;70.07
48614;BME280;34408;51.426;5.444;2023-04-01T01:42:11;99164.72;;;11.88;69.76
48614;BME280;34408;51.426;5.444;2023-04-01T01:44:43;99174.69;;;11.87;69.80
48614;BME280;34408;51.426;5.444;2023-04-01T01:47:13;99172.00;;;11.87;70.20
48614;BME280;34408;51.426;5.444;2023-04-01T01:49:42;99176.59;;;11.87;69.98
48614;BME280;34408;51.426;5.444;2023-04-01T01:52:12;99183.03;;;11.86;70.31
48614;BME280;34408;51.426;5.444;2023-04-01T01:54:47;99176.84;;;11.85;69.98
48614;BME280;34408;51.426;5.444;2023-04-01T01:57:16;99184.13;;;11.85;70.18
48614;BME280;34408;51.426;5.444;2023-04-01T01:59:47;99190.31;;;11.85;70.23
48614;BME280;34408;51.426;5.444;2023-04-01T02:02:16;99189.78;;;11.83;70.42
48614;BME280;34408;51.426;5.444;2023-04-01T02:04:45;99187.88;;;11.84;70.08
48614;BME280;34408;51.426;5.444;2023-04-01T02:07:19;99188.16;;;11.82;70.02
48614;BME280;34408;51.426;5.444;2023-04-01T02:09:48;99193.53;;;11.82;69.94
48614;BME280;34408;51.426;5.444;2023-04-01T02:12:17;99195.16;;;11.83;70.20
48614;BME280;34408;51.426;5.444;2023-04-01T02:14:50;99203.22;;;11.83;70.06
48614;BME280;34408;51.426;5.444;2023-04-01T02:17:22;99202.41;;;11.83;70.42
48614;BME280;34408;51.426;5.444;2023-04-01T02:19:52;99192.72;;;11.82;69.87
48614;BME280;34408;51.426;5.444;2023-04-01T02:22:24;99196.50;;;11.81;70.11
48614;BME280;34408;51.426;5.444;2023-04-01T02:24:57;99201.88;;;11.81;69.90
48614;BME280;34408;51.426;5.444;2023-04-01T02:27:25;99205.13;;;11.78;70.33
48614;BME280;34408;51.426;5.444;2023-04-01T02:29:53;99203.22;;;11.78;70.38
48614;BME280;34408;51.426;5.444;2023-04-01T02:32:21;99201.63;;;11.77;70.36
48614;BME280;34408;51.426;5.444;2023-04-01T02:34:49;99208.84;;;11.77;70.08
48614;BME280;34408;51.426;5.444;2023-04-01T02:37:17;99207.25;;;11.76;69.98
48614;BME280;34408;51.426;5.444;2023-04-01T02:39:46;99210.75;;;11.76;70.27
48614;BME280;34408;51.426;5.444;2023-04-01T02:42:14;99207.50;;;11.74;70.18
48614;BME280;34408;51.426;5.444;2023-04-01T02:44:42;99219.09;;;11.74;70.11
48614;BME280;34408;51.426;5.444;2023-04-01T02:47:09;99221.78;;;11.74;69.96
48614;BME280;34408;51.426;5.444;2023-04-01T02:49:37;99206.97;;;11.72;70.47
48614;BME280;34408;51.426;5.444;2023-04-01T02:52:05;99221.50;;;11.71;70.06
48614;BME280;34408;51.426;5.444;2023-04-01T02:54:33;99222.31;;;11.71;70.28
48614;BME280;34408;51.426;5.444;2023-04-01T02:57:02;99216.38;;;11.69;70.26
48614;BME280;34408;51.426;5.444;2023-04-01T02:59:30;99225.28;;;11.70;70.23
48614;BME280;34408;51.426;5.444;2023-04-01T03:01:57;99216.66;;;11.68;70.49
48614;BME280;34408;51.426;5.444;2023-04-01T03:04:25;99226.34;;;11.69;70.10
48614;BME280;34408;51.426;5.444;2023-04-01T03:06:53;99234.97;;;11.66;70.71
48614;BME280;34408;51.426;5.444;2023-04-01T03:09:21;99231.47;;;11.65;70.46
48614;BME280;34408;51.426;5.444;2023-04-01T03:11:49;99232.25;;;11.66;70.47
48614;BME280;34408;51.426;5.444;2023-04-01T03:14:18;99234.41;;;11.64;70.62
48614;BME280;34408;51.426;5.444;2023-04-01T03:16:46;99243.03;;;11.66;70.60
48614;BME280;34408;51.426;5.444;2023-04-01T03:19:14;99244.91;;;11.65;70.77
48614;BME280;34408;51.426;5.444;2023-04-01T03:21:41;99239.81;;;11.64;70.67
48614;BME280;34408;51.426;5.444;2023-04-01T03:24:09;99247.06;;;11.63;70.50
48614;BME280;34408;51.426;5.444;2023-04-01T03:26:37;99246.25;;;11.63;70.74
48614;BME280;34408;51.426;5.444;2023-04-01T03:29:05;99247.34;;;11.62;70.82
48614;BME280;34408;51.426;5.444;2023-04-01T03:31:34;99245.72;;;11.61;71.06
48614;BME280;34408;51.426;5.444;2023-04-01T03:34:01;99261.84;;;11.61;71.21
48614;BME280;34408;51.426;5.444;2023-04-01T03:36:29;99252.97;;;11.60;71.26
48614;BME280;34408;51.426;5.444;2023-04-01T03:38:57;99251.38;;;11.59;71.12
48614;BME280;34408;51.426;5.444;2023-04-01T03:41:25;99262.66;;;11.61;70.73
48614;BME280;34408;51.426;5.444;2023-04-01T03:43:53;99251.38;;;11.59;71.09
48614;BME280;34408;51.426;5.444;2023-04-01T03:46:22;99261.59;;;11.57;70.71
48614;BME280;34408;51.426;5.444;2023-04-01T03:48:51;99259.44;;;11.59;71.06
48614;BME280;34408;51.426;5.444;2023-04-01T03:51:19;99264.81;;;11.59;70.91
48614;BME280;34408;51.426;5.444;2023-04-01T03:53:47;99258.91;;;11.57;71.14
48614;BME280;34408;51.426;5.444;2023-04-01T03:56:14;99262.41;;;11.58;71.07
48614;BME280;34408;51.426;5.444;2023-04-01T03:58:42;99267.78;;;11.58;71.23
48614;BME280;34408;51.426;5.444;2023-04-01T04:01:17;99263.47;;;11.57;71.12
48614;BME280;34408;51.426;5.444;2023-04-01T04:03:46;99263.72;;;11.55;71.46
48614;BME280;34408;51.426;5.444;2023-04-01T04:06:18;99268.31;;;11.55;71.21
48614;BME280;34408;51.426;5.444;2023-04-01T04:08:46;99265.63;;;11.55;71.22
48614;BME280;34408;51.426;5.444;2023-04-01T04:11:14;99275.56;;;11.54;71.26
48614;BME280;34408;51.426;5.444;2023-04-01T04:13:42;99279.59;;;11.52;71.24
48614;BME280;34408;51.426;5.444;2023-04-01T04:16:10;99271.53;;;11.52;71.07
48614;BME280;34408;51.426;5.444;2023-04-01T04:18:38;99280.69;;;11.51;71.33
48614;BME280;34408;51.426;5.444;2023-04-01T04:21:06;99281.75;;;11.50;71.09
48614;BME280;34408;51.426;5.444;2023-04-01T04:23:35;99276.91;;;11.47;71.31
48614;BME280;34408;51.426;5.444;2023-04-01T04:26:05;99284.69;;;11.43;71.61
48614;BME280;34408;51.426;5.444;2023-04-01T04:28:33;99291.97;;;11.43;71.67
48614;BME280;34408;51.426;5.444;2023-04-01T04:31:01;99282.28;;;11.41;71.93
48614;BME280;34408;51.426;5.444;2023-04-01T04:33:31;99289.53;;;11.41;71.83
48614;BME280;34408;51.426;5.444;2023-04-01T04:35:59;99291.97;;;11.43;71.35
48614;BME280;34408;51.426;5.444;2023-04-01T04:38:27;99292.75;;;11.43;71.48
48614;BME280;34408;51.426;5.444;2023-04-01T04:40:56;99291.97;;;11.43;71.44
48614;BME280;34408;51.426;5.444;2023-04-01T04:43:24;99293.56;;;11.44;71.43
48614;BME280;34408;51.426;5.444;2023-04-01T04:45:52;99301.91;;;11.42;71.44
48614;BME280;34408;51.426;5.444;2023-04-01T04:48:19;99312.66;;;11.42;71.29
48614;BME280;34408;51.426;5.444;2023-04-01T04:50:48;99314.56;;;11.41;71.32
48614;BME280;34408;51.426;5.444;2023-04-01T04:53:17;99315.34;;;11.42;71.36
48614;BME280;34408;51.426;5.444;2023-04-01T04:55:46;99321.00;;;11.40;71.18
48614;BME280;34408;51.426;5.444;2023-04-01T04:58:17;99330.66;;;11.36;71.61
48614;BME280;34408;51.426;5.444;2023-04-01T05:00:45;99329.88;;;11.36;71.51
48614;BME280;34408;51.426;5.444;2023-04-01T05:03:13;99332.00;;;11.34;71.86
48614;BME280;34408;51.426;5.444;2023-04-01T05:05:48;99333.88;;;11.33;71.79
48614;BME280;34408;51.426;5.444;2023-04-01T05:08:16;99333.09;;;11.33;71.56
48614;BME280;34408;51.426;5.444;2023-04-01T05:10:44;99337.38;;;11.34;71.65
48614;BME280;34408;51.426;5.444;2023-04-01T05:13:12;99335.50;;;11.34;71.32
48614;BME280;34408;51.426;5.444;2023-04-01T05:15:41;99346.25;;;11.34;71.42
48614;BME280;34408;51.426;5.444;2023-04-01T05:18:09;99344.13;;;11.36;71.61
48614;BME280;34408;51.426;5.444;2023-04-01T05:20:37;99353.25;;;11.35;71.49
48614;BME280;34408;51.426;5.444;2023-04-01T05:23:04;99350.28;;;11.32;71.66
48614;BME280;34408;51.426;5.444;2023-04-01T05:25:32;99353.78;;;11.32;71.46
48614;BME280;34408;51.426;5.444;2023-04-01T05:28:03;99353.53;;;11.34;71.36
48614;BME280;34408;51.426;5.444;2023-04-01T05:30:31;99363.47;;;11.33;71.85
48614;BME280;34408;51.426;5.444;2023-04-01T05:33:00;99366.44;;;11.32;71.26
48614;BME280;34408;51.426;5.444;2023-04-01T05:35:28;99368.03;;;11.33;71.56
48614;BME280;34408;51.426;5.444;2023-04-01T05:37:56;99368.56;;;11.30;71.64
48614;BME280;34408;51.426;5.444;2023-04-01T05:40:23;99374.75;;;11.30;71.48
48614;BME280;34408;51.426;5.444;2023-04-01T05:42:51;99374.75;;;11.30;71.52
48614;BME280;34408;51.426;5.444;2023-04-01T05:45:19;99377.19;;;11.32;71.39
48614;BME280;34408;51.426;5.444;2023-04-01T05:47:47;99387.94;;;11.32;71.60
48614;BME280;34408;51.426;5.444;2023-04-01T05:50:17;99399.56;;;11.43;71.24
48614;BME280;34408;51.426;5.444;2023-04-01T05:52:44;99386.69;;;11.55;70.47
48614;BME280;34408;51.426;5.444;2023-04-01T05:55:12;99397.25;;;11.71;70.40
48614;BME280;34408;51.426;5.444;2023-04-01T05:57:40;99393.00;;;11.86;69.79
48614;BME280;34408;51.426;5.444;2023-04-01T06:00:09;99400.84;;;12.08;68.63
48614;BME280;34408;51.426;5.444;2023-04-01T06:02:37;99397.06;;;12.24;68.05
48614;BME280;34408;51.426;5.444;2023-04-01T06:05:13;99410.03;;;12.37;67.63
48614;BME280;34408;51.426;5.444;2023-04-01T06:07:43;99411.91;;;12.52;67.16
48614;BME280;34408;51.426;5.444;2023-04-01T06:10:13;99418.09;;;12.62;66.80
48614;BME280;34408;51.426;5.444;2023-04-01T06:12:59;99422.41;;;12.58;66.70
48614;BME280;34408;51.426;5.444;2023-04-01T06:15:36;99428.63;;;12.49;66.75
48614;BME280;34408;51.426;5.444;2023-04-01T06:18:25;99428.88;;;12.37;67.30
48614;BME280;34408;51.426;5.444;2023-04-01T06:21:05;99432.63;;;12.16;68.45
48614;BME280;34408;51.426;5.444;2023-04-01T06:23:44;99437.75;;;12.02;68.71
48614;BME280;34408;51.426;5.444;2023-04-01T06:26:25;99442.56;;;11.90;69.49
48614;BME280;34408;51.426;5.444;2023-04-01T06:29:09;99444.94;;;11.81;69.48
48614;BME280;34408;51.426;5.444;2023-04-01T06:32:01;99447.03;;;11.74;69.81
48614;BME280;34408;51.426;5.444;2023-04-01T06:34:47;99455.34;;;11.67;70.16
48614;BME280;34408;51.426;5.444;2023-04-01T06:40:39;99458.28;;;11.61;70.36
48614;BME280;34408;51.426;5.444;2023-04-01T06:43:15;99456.13;;;11.58;70.44
48614;BME280;34408;51.426;5.444;2023-04-01T06:45:52;99465.22;;;11.47;70.97
48614;BME280;34408;51.426;5.444;2023-04-01T06:48:35;99472.69;;;11.34;72.05
48614;BME280;34408;51.426;5.444;2023-04-01T06:51:15;99470.53;;;11.36;72.01
48614;BME280;34408;51.426;5.444;2023-04-01T06:53:51;99467.31;;;11.34;71.97
48614;BME280;34408;51.426;5.444;2023-04-01T06:56:25;99479.72;;;11.40;71.65
48614;BME280;34408;51.426;5.444;2023-04-01T06:58:56;99478.63;;;11.41;71.62
48614;BME280;34408;51.426;5.444;2023-04-01T07:01:29;99485.91;;;11.41;71.86
48614;BME280;34408;51.426;5.444;2023-04-01T07:04:00;99488.84;;;11.39;71.87
48614;BME280;34408;51.426;5.444;2023-04-01T07:06:31;99482.91;;;11.37;71.89
48614;BME280;34408;51.426;5.444;2023-04-01T07:09:02;99500.66;;;11.33;72.35
48614;BME280;34408;51.426;5.444;2023-04-01T07:11:34;99492.31;;;11.35;72.25
48614;BME280;34408;51.426;5.444;2023-04-01T07:14:09;99500.38;;;11.35;72.09
48614;BME280;34408;51.426;5.444;2023-04-01T07:16:41;99503.09;;;11.35;72.27
48614;BME280;34408;51.426;5.444;2023-04-01T07:19:17;99503.88;;;11.35;71.88
48614;BME280;34408;51.426;5.444;2023-04-01T07:21:48;99511.16;;;11.35;72.19
48614;BME280;34408;51.426;5.444;2023-04-01T07:24:21;99517.59;;;11.34;72.33
48614;BME280;34408;51.426;5.444;2023-04-01T07:26:55;99524.03;;;11.33;72.31
48614;BME280;34408;51.426;5.444;2023-04-01T07:29:23;99527.81;;;11.32;72.43
48614;BME280;34408;51.426;5.444;2023-04-01T07:32:17;99527.81;;;11.32;72.29
48614;BME280;34408;51.426;5.444;2023-04-01T07:37:48;99539.13;;;11.34;72.67
48614;BME280;34408;51.426;5.444;2023-04-01T07:40:26;99541.00;;;11.33;72.68
48614;BME280;34408;51.426;5.444;2023-04-01T07:43:09;99542.88;;;11.33;72.62
48614;BME280;34408;51.426;5.444;2023-04-01T07:45:45;99543.94;;;11.32;72.72
48614;BME280;34408;51.426;5.444;2023-04-01T07:48:23;99547.19;;;11.34;72.47
48614;BME280;34408;51.426;5.444;2023-04-01T07:51:00;99559.53;;;11.30;72.85
48614;BME280;34408;51.426;5.444;2023-04-01T07:53:34;99543.34;;;11.25;73.31
48614;BME280;34408;51.426;5.444;2023-04-01T07:56:06;99552.00;;;11.32;72.78
48614;BME280;34408;51.426;5.444;2023-04-01T07:58:48;99554.41;;;11.28;72.61
48614;BME280;34408;51.426;5.444;2023-04-01T08:01:23;99562.47;;;11.28;73.11
48614;BME280;34408;51.426;5.444;2023-04-01T08:04:10;99569.72;;;11.28;73.26
48614;BME280;34408;51.426;5.444;2023-04-01T08:06:45;99570.53;;;11.28;73.26
48614;BME280;34408;51.426;5.444;2023-04-01T08:09:20;99572.97;;;11.30;72.88
48614;BME280;34408;51.426;5.444;2023-04-01T08:12:01;99580.78;;;11.31;73.27
48614;BME280;34408;51.426;5.444;2023-04-01T08:14:37;99587.78;;;11.32;73.25
48614;BME280;34408;51.426;5.444;2023-04-01T08:17:15;99585.91;;;11.33;73.16
48614;BME280;34408;51.426;5.444;2023-04-01T08:19:56;99602.22;;;11.21;74.36
48614;BME280;34408;51.426;5.444;2023-04-01T08:22:29;99603.84;;;11.22;74.39
48614;BME280;34408;51.426;5.444;2023-04-01T08:25:02;99605.22;;;11.25;74.25
48614;BME280;34408;51.426;5.444;2023-04-01T08:27:37;99606.56;;;11.27;74.30
48614;BME280;34408;51.426;5.444;2023-04-01T08:30:17;99616.00;;;11.30;74.09
48614;BME280;34408;51.426;5.444;2023-04-01T08:32:48;99597.75;;;11.32;73.69
48614;BME280;34408;51.426;5.444;2023-04-01T08:35:26;99602.06;;;11.33;73.77
48614;BME280;34408;51.426;5.444;2023-04-01T08:38:01;99606.09;;;11.35;73.80
48614;BME280;34408;51.426;5.444;2023-04-01T08:40:55;99610.16;;;11.38;73.90
48614;BME280;34408;51.426;5.444;2023-04-01T08:43:36;99619.03;;;11.38;74.21
48614;BME280;34408;51.426;5.444;2023-04-01T08:46:33;99623.59;;;11.38;74.08
48614;BME280;34408;51.426;5.444;2023-04-01T08:49:10;99620.41;;;11.41;74.21
48614;BME280;34408;51.426;5.444;2023-04-01T08:52:14;99633.03;;;11.40;74.11
48614;BME280;34408;51.426;5.444;2023-04-01T08:55:21;99641.94;;;11.41;74.01
48614;BME280;34408;51.426;5.444;2023-04-01T08:58:13;99640.06;;;11.41;74.20
48614;BME280;34408;51.426;5.444;2023-04-01T09:00:46;99645.19;;;11.43;73.74
48614;BME280;34408;51.426;5.444;2023-04-01T09:03:37;99657.31;;;11.46;73.94
48614;BME280;34408;51.426;5.444;2023-04-01T09:06:24;99654.66;;;11.51;73.25
48614;BME280;34408;51.426;5.444;2023-04-01T09:09:06;99661.09;;;11.50;73.61
48614;BME280;34408;51.426;5.444;2023-04-01T09:11:54;99666.47;;;11.50;73.47
48614;BME280;34408;51.426;5.444;2023-04-01T09:14:38;99668.88;;;11.46;73.56
48614;BME280;34408;51.426;5.444;2023-04-01T09:17:50;99670.50;;;11.47;73.66
48614;BME280;34408;51.426;5.444;2023-04-01T09:20:47;99676.44;;;11.49;73.27
48614;BME280;34408;51.426;5.444;2023-04-01T09:23:47;99673.75;;;11.49;73.62
48614;BME280;34408;51.426;5.444;2023-04-01T09:26:28;99679.13;;;11.49;73.52
48614;BME280;34408;51.426;5.444;2023-04-01T09:29:09;99676.94;;;11.46;73.60
48614;BME280;34408;51.426;5.444;2023-04-01T09:32:10;99684.16;;;11.40;73.74
48614;BME280;34408;51.426;5.444;2023-04-01T09:34:53;99696.28;;;11.43;73.91
48614;BME280;34408;51.426;5.444;2023-04-01T09:37:32;99693.59;;;11.43;73.96
48614;BME280;34408;51.426;5.444;2023-04-01T09:40:18;99687.97;;;11.45;73.95
48614;BME280;34408;51.426;5.444;2023-04-01T09:43:28;99701.16;;;11.46;74.19
48614;BME280;34408;51.426;5.444;2023-04-01T09:46:16;99697.41;;;11.47;74.04
48614;BME280;34408;51.426;5.444;2023-04-01T09:49:11;99706.28;;;11.48;73.98
48614;BME280;34408;51.426;5.444;2023-04-01T09:51:57;99706.53;;;11.46;73.86
48614;BME280;34408;51.426;5.444;2023-04-01T09:54:40;99707.84;;;11.44;74.08
48614;BME280;34408;51.426;5.444;2023-04-01T10:09:59;99715.47;;;11.52;73.83
48614;BME280;34408;51.426;5.444;2023-04-01T10:13:11;99724.09;;;11.54;74.01
48614;BME280;34408;51.426;5.444;2023-04-01T10:19:20;99738.38;;;11.54;73.87
48614;BME280;34408;51.426;5.444;2023-04-01T10:22:09;99739.72;;;11.57;73.74
48614;BME280;34408;51.426;5.444;2023-04-01T10:27:49;99744.59;;;11.60;73.45
48614;BME280;34408;51.426;5.444;2023-04-01T10:34:03;99737.25;;;11.50;73.75
48614;BME280;34408;51.426;5.444;2023-04-01T10:36:51;99750.75;;;11.55;73.58
48614;BME280;34408;51.426;5.444;2023-04-01T10:39:37;99750.75;;;11.55;73.79
48614;BME280;34408;51.426;5.444;2023-04-01T10:45:29;99754.31;;;11.61;73.49
48614;BME280;34408;51.426;5.444;2023-04-01T10:48:23;99758.63;;;11.62;73.34
48614;BME280;34408;51.426;5.444;2023-04-01T10:51:12;99762.13;;;11.62;73.13
48614;BME280;34408;51.426;5.444;2023-04-01T10:53:49;99767.97;;;11.54;73.30
48614;BME280;34408;51.426;5.444;2023-04-01T10:56:46;99762.84;;;11.53;73.38
48614;BME280;34408;51.426;5.444;2023-04-01T10:59:32;99766.34;;;11.53;73.30
48614;BME280;34408;51.426;5.444;2023-04-01T11:02:33;99771.72;;;11.53;73.38
48614;BME280;34408;51.426;5.444;2023-04-01T11:11:47;99768.56;;;11.61;73.25
48614;BME280;34408;51.426;5.444;2023-04-01T11:14:46;99778.00;;;11.64;73.30
48614;BME280;34408;51.426;5.444;2023-04-01T11:20:45;99785.84;;;11.65;73.02
48614;BME280;34408;51.426;5.444;2023-04-01T11:26:41;99791.47;;;11.64;73.14
48614;BME280;34408;51.426;5.444;2023-04-01T11:29:27;99793.09;;;11.65;73.17
48614;BME280;34408;51.426;5.444;2023-04-01T11:32:10;99798.47;;;11.65;73.18
48614;BME280;34408;51.426;5.444;2023-04-01T11:34:54;99806.56;;;11.65;73.01
48614;BME280;34408;51.426;5.444;2023-04-01T11:37:32;99806.81;;;11.63;72.89
48614;BME280;34408;51.426;5.444;2023-04-01T11:40:17;99808.13;;;11.61;73.42
48614;BME280;34408;51.426;5.444;2023-04-01T11:42:57;99807.88;;;11.62;73.31
48614;BME280;34408;51.426;5.444;2023-04-01T11:45:35;99813.31;;;11.67;73.31
48614;BME280;34408;51.426;5.444;2023-04-01T11:48:28;99818.19;;;11.70;73.36
48614;BME280;34408;51.426;5.444;2023-04-01T11:51:07;99823.88;;;11.74;73.34
48614;BME280;34408;51.426;5.444;2023-04-01T11:53:44;99828.50;;;11.79;72.88
48614;BME280;34408;51.426;5.444;2023-04-01T11:56:36;99823.94;;;11.79;73.07
48614;BME280;34408;51.426;5.444;2023-04-01T11:59:31;99823.69;;;11.81;72.86
48614;BME280;34408;51.426;5.444;2023-04-01T12:02:11;99834.72;;;11.79;72.62
48614;BME280;34408;51.426;5.444;2023-04-01T12:04:54;99833.09;;;11.78;72.98
48614;BME280;34408;51.426;5.444;2023-04-01T12:07:41;99843.59;;;11.80;72.65
48614;BME280;34408;51.426;5.444;2023-04-01T12:10:18;99846.53;;;11.78;72.78
48614;BME280;34408;51.426;5.444;2023-04-01T12:12:54;99824.69;;;11.74;72.98
48614;BME280;34408;51.426;5.444;2023-04-01T12:15:33;99836.63;;;11.84;72.67
48614;BME280;34408;51.426;5.444;2023-04-01T12:18:05;99847.75;;;11.92;73.04
48614;BME280;34408;51.426;5.444;2023-04-01T12:20:48;99854.09;;;12.08;72.03
48614;BME280;34408;51.426;5.444;2023-04-01T12:23:37;99859.63;;;12.28;71.55
48614;BME280;34408;51.426;5.444;2023-04-01T12:26:33;99857.59;;;12.46;71.20
48614;BME280;34408;51.426;5.444;2023-04-01T12:29:18;99857.72;;;12.61;70.85
48614;BME280;34408;51.426;5.444;2023-04-01T12:31:53;99864.06;;;12.82;70.18
48614;BME280;34408;51.426;5.444;2023-04-01T12:34:49;99864.97;;;13.02;68.89
48614;BME280;34408;51.426;5.444;2023-04-01T12:37:34;99865.63;;;13.20;68.54
48614;BME280;34408;51.426;5.444;2023-04-01T12:40:18;99872.19;;;13.34;68.33
48614;BME280;34408;51.426;5.444;2023-04-01T12:42:59;99878.09;;;13.31;68.19
48614;BME280;34408;51.426;5.444;2023-04-01T12:45:31;99872.91;;;13.19;68.36
48614;BME280;34408;51.426;5.444;2023-04-01T12:48:09;99883.34;;;13.06;68.89
48614;BME280;34408;51.426;5.444;2023-04-01T12:51:00;99886.75;;;12.91;69.85
48614;BME280;34408;51.426;5.444;2023-04-01T12:53:44;99886.97;;;12.79;69.96
48614;BME280;34408;51.426;5.444;2023-04-01T12:56:19;99890.41;;;12.69;70.60
48614;BME280;34408;51.426;5.444;2023-04-01T12:59:08;99886.56;;;12.60;70.57
48614;BME280;34408;51.426;5.444;2023-04-01T13:01:56;99887.84;;;12.53;71.19
48614;BME280;34408;51.426;5.444;2023-04-01T13:04:39;99896.91;;;12.42;71.03
48614;BME280;34408;51.426;5.444;2023-04-01T13:10:27;99894.41;;;12.30;71.79
48614;BME280;34408;51.426;5.444;2023-04-01T13:13:14;99902.44;;;12.25;72.10
48614;BME280;34408;51.426;5.444;2023-04-01T13:15:45;99899.69;;;12.20;72.00
48614;BME280;34408;51.426;5.444;2023-04-01T13:18:28;99904.28;;;12.19;71.84
48614;BME280;34408;51.426;5.444;2023-04-01T13:21:04;99908.84;;;12.19;72.18
48614;BME280;34408;51.426;5.444;2023-04-01T13:23:42;99918.81;;;12.18;72.56
48614;BME280;34408;51.426;5.444;2023-04-01T13:26:18;99923.63;;;12.16;72.48
48614;BME280;34408;51.426;5.444;2023-04-01T13:28:55;99911.78;;;12.12;72.59
48614;BME280;34408;51.426;5.444;2023-04-01T13:31:37;99925.75;;;12.09;72.68
48614;BME280;34408;51.426;5.444;2023-04-01T13:34:17;99924.13;;;12.08;73.37
48614;BME280;34408;51.426;5.444;2023-04-01T13:36:59;99927.06;;;12.07;73.29
48614;BME280;34408;51.426;5.444;2023-04-01T13:39:40;99936.22;;;12.05;73.19
48614;BME280;34408;51.426;5.444;2023-04-01T13:42:21;99915.38;;;11.96;73.15
48614;BME280;34408;51.426;5.444;2023-04-01T13:44:55;99943.22;;;12.07;73.49
48614;BME280;34408;51.426;5.444;2023-04-01T13:50:53;99944.56;;;12.04;73.61
48614;BME280;34408;51.426;5.444;2023-04-01T13:53:44;99939.22;;;12.14;73.51
48614;BME280;34408;51.426;5.444;2023-04-01T13:56:34;99938.88;;;12.32;72.92
48614;BME280;34408;51.426;5.444;2023-04-01T13:59:37;99945.97;;;12.44;72.01
48614;BME280;34408;51.426;5.444;2023-04-01T14:02:27;99949.38;;;12.61;71.55
48614;BME280;34408;51.426;5.444;2023-04-01T14:05:09;99947.38;;;12.83;70.74
48614;BME280;34408;51.426;5.444;2023-04-01T14:07:51;99950.91;;;12.84;70.04
48614;BME280;34408;51.426;5.444;2023-04-01T14:10:26;99947.56;;;12.71;70.50
48614;BME280;34408;51.426;5.444;2023-04-01T14:13:02;99957.25;;;12.67;70.85
48614;BME280;34408;51.426;5.444;2023-04-01T14:15:57;99958.78;;;12.58;71.51
48614;BME280;34408;51.426;5.444;2023-04-01T14:18:45;99973.22;;;12.47;71.74
48614;BME280;34408;51.426;5.444;2023-04-01T14:21:32;99973.44;;;12.41;72.12
48614;BME280;34408;51.426;5.444;2023-04-01T14:24:32;99976.59;;;12.32;72.08
48614;BME280;34408;51.426;5.444;2023-04-01T14:27:18;99971.66;;;12.24;72.48
48614;BME280;34408;51.426;5.444;2023-04-01T14:30:00;99981.31;;;12.20;72.68
48614;BME280;34408;51.426;5.444;2023-04-01T14:32:40;99979.69;;;12.19;72.50
48614;BME280;34408;51.426;5.444;2023-04-01T14:35:27;99985.59;;;12.16;72.86
48614;BME280;34408;51.426;5.444;2023-04-01T14:40:55;99993.38;;;12.13;72.89
48614;BME280;34408;51.426;5.444;2023-04-01T14:49:24;100004.34;;;12.06;73.17